Time;durP1;ratioP1;P1;durP2;ratioP2;P2;SDS_P1;SDS_P2;PMS_P1;PMS_P2;Temp;Humidity;BMP_temperature;BMP_pressure;BME280_temperature;BME280_humidity;BME280_pressure;Samples;Min_cycle;Max_cycle;Signal;HPM_P1;HPM_P2
2023/10/06 00:03:21;;;;;;;17.20;13.02;;;;;;;;;;10062342;28;20152;-72
2023/10/06 00:08:32;;;;;;;17.30;12.65;;;;;;;;;;10062978;28;20075;-72
2023/10/06 00:13:31;;;;;;;17.98;14.13;;;;;;;;;;10061173;28;20239;-72
2023/10/06 00:18:27;;;;;;;15.75;14.10;;;;;;;;;;10062000;28;20444;-71
2023/10/06 00:23:23;;;;;;;20.00;13.25;;;;;;;;;;10063415;28;20069;-73
2023/10/06 00:28:22;;;;;;;19.00;15.13;;;;;;;;;;10064213;28;20072;-72
2023/10/06 00:33:15;;;;;;;20.35;15.15;;;;;;;;;;10059891;28;20121;-72
2023/10/06 00:38:16;;;;;;;19.67;15.50;;;;;;;;;;10062342;28;20046;-72
2023/10/06 00:43:08;;;;;;;18.27;15.35;;;;;;;;;;10069268;28;20052;-72
2023/10/06 00:48:04;;;;;;;18.77;15.40;;;;;;;;;;10062841;28;20045;-72
2023/10/06 00:52:56;;;;;;;20.60;15.68;;;;;;;;;;10062465;28;20615;-72
2023/10/06 00:57:53;;;;;;;19.45;14.98;;;;;;;;;;10061875;28;20048;-72
2023/10/06 01:02:45;;;;;;;21.20;14.27;;;;;;;;;;10061557;28;20049;-72
2023/10/06 01:07:37;;;;;;;18.60;16.35;;;;;;;;;;10056886;28;20056;-73
2023/10/06 01:12:31;;;;;;;17.45;14.68;;;;;;;;;;10056092;28;20185;-72
2023/10/06 01:17:23;;;;;;;16.85;14.95;;;;;;;;;;10061595;28;20111;-72
2023/10/06 01:22:28;;;;;;;16.55;14.32;;;;;;;;;;10062032;28;20054;-71
2023/10/06 01:27:25;;;;;;;17.83;14.95;;;;;;;;;;10054375;28;20068;-73
2023/10/06 01:32:17;;;;;;;18.50;13.48;;;;;;;;;;10070300;28;20045;-72
2023/10/06 01:37:09;;;;;;;19.17;15.18;;;;;;;;;;10060589;28;20037;-72
2023/10/06 01:42:11;;;;;;;18.27;15.50;;;;;;;;;;10067318;28;20482;-72
2023/10/06 01:47:04;;;;;;;17.30;14.75;;;;;;;;;;10059934;28;20045;-72
2023/10/06 01:51:57;;;;;;;18.88;14.02;;;;;;;;;;10065832;28;20041;-72
2023/10/06 01:57:04;;;;;;;15.65;13.43;;;;;;;;;;10066356;28;20365;-72
2023/10/06 02:02:04;;;;;;;14.93;13.07;;;;;;;;;;10067591;28;20340;-72
2023/10/06 02:06:56;;;;;;;16.75;14.95;;;;;;;;;;10067417;28;20040;-71
2023/10/06 02:11:53;;;;;;;23.15;16.48;;;;;;;;;;10066153;28;20092;-73
2023/10/06 02:16:46;;;;;;;19.60;15.93;;;;;;;;;;10066743;28;20375;-72
2023/10/06 02:21:46;;;;;;;20.30;17.00;;;;;;;;;;10057023;28;20467;-73
2023/10/06 02:26:38;;;;;;;19.20;16.48;;;;;;;;;;10064890;28;20124;-71
2023/10/06 02:31:30;;;;;;;21.23;18.75;;;;;;;;;;10067253;28;20522;-71
2023/10/06 02:36:23;;;;;;;24.38;17.83;;;;;;;;;;10065288;28;20050;-72
2023/10/06 02:41:20;;;;;;;20.25;16.52;;;;;;;;;;10064720;28;20041;-73
2023/10/06 02:46:14;;;;;;;17.85;16.02;;;;;;;;;;10067515;28;20061;-72
2023/10/06 02:51:06;;;;;;;19.45;17.38;;;;;;;;;;10065425;28;20394;-72
2023/10/06 02:56:07;;;;;;;20.90;15.45;;;;;;;;;;10066709;28;20045;-71
2023/10/06 03:00:59;;;;;;;18.35;16.27;;;;;;;;;;10064896;28;20081;-72
2023/10/06 03:05:51;;;;;;;22.80;15.65;;;;;;;;;;10065054;28;20464;-72
2023/10/06 03:10:43;;;;;;;19.63;15.57;;;;;;;;;;10062379;28;20076;-72
2023/10/06 03:15:45;;;;;;;21.95;16.17;;;;;;;;;;10063572;28;20530;-73
2023/10/06 03:20:47;;;;;;;18.23;16.33;;;;;;;;;;10054883;28;20037;-72
2023/10/06 03:25:39;;;;;;;16.92;14.38;;;;;;;;;;10064500;28;20064;-72
2023/10/06 03:30:34;;;;;;;24.45;15.95;;;;;;;;;;10064789;28;20042;-72
2023/10/06 03:35:45;;;;;;;16.08;14.43;;;;;;;;;;10062902;28;20095;-72
2023/10/06 03:41:18;;;;;;;24.63;15.77;;;;;;;;;;10062059;28;20049;-72
2023/10/06 03:45:55;;;;;;;17.67;14.75;;;;;;;;;;10057386;28;20091;-71
2023/10/06 03:50:47;;;;;;;17.42;15.45;;;;;;;;;;10062824;28;20045;-72
2023/10/06 03:55:39;;;;;;;16.45;14.10;;;;;;;;;;10064319;28;20479;-72
2023/10/06 04:00:38;;;;;;;17.65;15.40;;;;;;;;;;10064304;28;20468;-71
2023/10/06 04:05:37;;;;;;;19.15;15.07;;;;;;;;;;10062111;28;20096;-71
2023/10/06 04:10:28;;;;;;;16.20;14.00;;;;;;;;;;10063429;28;20120;-72
2023/10/06 04:15:20;;;;;;;19.10;14.73;;;;;;;;;;10064160;28;20041;-72
2023/10/06 04:20:13;;;;;;;21.10;16.60;;;;;;;;;;10062020;28;20742;-72
2023/10/06 04:25:10;;;;;;;17.40;15.55;;;;;;;;;;10049175;28;20072;-71
2023/10/06 04:30:04;;;;;;;18.85;16.77;;;;;;;;;;10066455;28;20052;-70
2023/10/06 04:34:57;;;;;;;19.70;14.88;;;;;;;;;;10065999;28;20050;-70
2023/10/06 04:39:49;;;;;;;19.00;14.45;;;;;;;;;;10065410;28;20087;-71
2023/10/06 04:44:41;;;;;;;17.27;14.63;;;;;;;;;;10065848;28;20065;-72
2023/10/06 04:49:34;;;;;;;18.70;16.10;;;;;;;;;;10065680;28;20558;-72
2023/10/06 04:54:26;;;;;;;22.50;15.55;;;;;;;;;;10065399;28;20049;-72
2023/10/06 04:59:19;;;;;;;16.02;14.35;;;;;;;;;;10065605;28;20053;-72
2023/10/06 05:04:11;;;;;;;29.75;20.88;;;;;;;;;;10064560;28;20467;-72
2023/10/06 05:09:03;;;;;;;20.73;18.25;;;;;;;;;;10073348;28;20072;-72
2023/10/06 05:13:55;;;;;;;22.10;17.73;;;;;;;;;;10073134;28;20398;-67
2023/10/06 05:18:47;;;;;;;22.42;18.40;;;;;;;;;;10072873;28;20467;-69
2023/10/06 05:23:41;;;;;;;23.75;18.58;;;;;;;;;;10072921;28;20045;-69
2023/10/06 05:28:34;;;;;;;24.30;21.42;;;;;;;;;;10072823;28;20476;-69
2023/10/06 05:33:26;;;;;;;24.52;21.50;;;;;;;;;;10073515;28;20042;-69
2023/10/06 05:38:19;;;;;;;29.42;23.70;;;;;;;;;;10072366;28;20045;-70
2023/10/06 05:43:17;;;;;;;32.97;24.45;;;;;;;;;;10072234;28;20042;-70
2023/10/06 05:48:12;;;;;;;26.97;22.97;;;;;;;;;;10072294;28;20069;-70
2023/10/06 05:53:07;;;;;;;24.60;20.85;;;;;;;;;;10071773;28;20318;-69
2023/10/06 05:58:00;;;;;;;29.05;22.92;;;;;;;;;;10068233;28;20064;-69
2023/10/06 06:02:53;;;;;;;35.15;27.55;;;;;;;;;;10067763;28;20053;-68
2023/10/06 06:07:45;;;;;;;38.40;31.10;;;;;;;;;;10060047;28;20053;-69
2023/10/06 06:12:37;;;;;;;39.10;29.95;;;;;;;;;;10070720;28;20129;-69
2023/10/06 06:17:29;;;;;;;42.08;31.25;;;;;;;;;;10070405;28;20096;-70
2023/10/06 06:22:20;;;;;;;45.72;32.10;;;;;;;;;;10070303;28;20054;-69
2023/10/06 06:27:13;;;;;;;42.83;31.33;;;;;;;;;;10070030;28;20037;-70
2023/10/06 06:32:11;;;;;;;41.28;31.65;;;;;;;;;;10069806;28;20068;-69
2023/10/06 06:37:03;;;;;;;43.42;31.48;;;;;;;;;;10069724;28;20409;-70
2023/10/06 06:41:55;;;;;;;39.83;32.15;;;;;;;;;;10069108;28;20045;-68
2023/10/06 06:46:47;;;;;;;41.40;32.08;;;;;;;;;;10068102;28;20076;-69
2023/10/06 06:51:40;;;;;;;36.67;29.88;;;;;;;;;;10069133;28;20046;-70
2023/10/06 06:56:32;;;;;;;37.20;28.80;;;;;;;;;;10068082;28;20046;-69
2023/10/06 07:01:24;;;;;;;36.38;28.10;;;;;;;;;;10066300;28;20116;-69
2023/10/06 07:06:16;;;;;;;38.30;31.30;;;;;;;;;;10065760;28;20456;-69
2023/10/06 07:11:12;;;;;;;35.50;30.23;;;;;;;;;;10053879;28;20037;-72
2023/10/06 07:16:06;;;;;;;44.22;31.85;;;;;;;;;;10059759;28;20037;-69
2023/10/06 07:20:58;;;;;;;46.53;30.55;;;;;;;;;;10062738;28;20324;-69
2023/10/06 07:25:51;;;;;;;52.35;34.10;;;;;;;;;;10061013;28;20105;-70
2023/10/06 07:30:43;;;;;;;48.45;34.58;;;;;;;;;;10061559;28;20050;-70
2023/10/06 07:35:41;;;;;;;44.75;32.70;;;;;;;;;;10061652;28;20099;-70
2023/10/06 07:40:34;;;;;;;41.45;31.42;;;;;;;;;;10062275;28;20064;-70
2023/10/06 07:45:26;;;;;;;43.85;29.92;;;;;;;;;;10062014;28;20072;-69
2023/10/06 07:50:18;;;;;;;47.65;35.35;;;;;;;;;;10063077;28;20124;-69
2023/10/06 07:55:11;;;;;;;41.88;34.22;;;;;;;;;;10065340;28;20107;-70
2023/10/06 08:00:06;;;;;;;48.83;34.90;;;;;;;;;;10062010;28;20451;-68
2023/10/06 08:05:12;;;;;;;52.15;37.20;;;;;;;;;;10062347;28;20667;-69
2023/10/06 08:10:05;;;;;;;52.15;37.95;;;;;;;;;;10059733;28;20045;-68
2023/10/06 08:14:57;;;;;;;48.38;37.78;;;;;;;;;;10063424;28;20095;-69
2023/10/06 08:19:49;;;;;;;45.03;34.85;;;;;;;;;;10060266;28;20048;-68
2023/10/06 08:24:41;;;;;;;42.58;35.08;;;;;;;;;;10061462;28;20041;-68
2023/10/06 08:29:33;;;;;;;46.08;31.88;;;;;;;;;;10061559;28;20037;-68
2023/10/06 08:34:27;;;;;;;36.30;29.63;;;;;;;;;;10062277;28;20041;-70
2023/10/06 08:39:20;;;;;;;44.28;34.17;;;;;;;;;;10059990;28;20041;-69
2023/10/06 08:44:13;;;;;;;41.17;34.42;;;;;;;;;;10061155;28;20522;-69
2023/10/06 08:49:05;;;;;;;35.35;30.73;;;;;;;;;;10059990;28;20640;-68
2023/10/06 08:54:00;;;;;;;42.38;32.67;;;;;;;;;;10060986;28;20048;-68
2023/10/06 08:58:53;;;;;;;39.30;32.13;;;;;;;;;;10059152;28;20041;-69
2023/10/06 09:03:46;;;;;;;34.15;29.05;;;;;;;;;;10055366;28;20057;-69
2023/10/06 09:08:40;;;;;;;36.80;29.00;;;;;;;;;;10051865;28;20049;-70
2023/10/06 09:13:32;;;;;;;40.85;27.00;;;;;;;;;;10045434;28;20107;-70
2023/10/06 09:18:28;;;;;;;27.88;24.63;;;;;;;;;;10064446;28;20047;-69
2023/10/06 09:23:34;;;;;;;32.22;23.83;;;;;;;;;;10063389;28;20379;-68
2023/10/06 09:28:27;;;;;;;36.33;27.73;;;;;;;;;;10063220;28;20077;-69
2023/10/06 09:33:18;;;;;;;34.00;27.98;;;;;;;;;;10063851;28;20053;-69
2023/10/06 09:38:13;;;;;;;29.23;25.67;;;;;;;;;;10062533;28;20038;-69
2023/10/06 09:43:25;;;;;;;28.30;24.52;;;;;;;;;;10063628;28;20395;-68
2023/10/06 09:48:22;;;;;;;30.27;25.45;;;;;;;;;;10064101;28;20050;-68
2023/10/06 09:53:15;;;;;;;31.60;25.50;;;;;;;;;;10070280;28;20476;-68
2023/10/06 09:58:07;;;;;;;26.35;23.50;;;;;;;;;;10055915;28;20463;-69
2023/10/06 10:03:00;;;;;;;31.40;26.08;;;;;;;;;;10070170;28;20131;-68
2023/10/06 10:07:54;;;;;;;26.58;22.92;;;;;;;;;;10068395;28;20050;-68
2023/10/06 10:13:25;;;;;;;27.83;22.05;;;;;;;;;;10069803;28;20056;-68
2023/10/06 10:18:35;;;;;;;22.38;20.00;;;;;;;;;;10069756;28;20046;-68
2023/10/06 10:23:31;;;;;;;32.35;21.52;;;;;;;;;;10069043;28;20057;-68
2023/10/06 10:28:27;;;;;;;28.77;24.27;;;;;;;;;;10068388;28;20357;-69
2023/10/06 10:33:24;;;;;;;22.92;20.52;;;;;;;;;;10068846;28;20129;-68
2023/10/06 10:38:16;;;;;;;22.13;19.67;;;;;;;;;;10068999;28;20451;-69
2023/10/06 10:43:14;;;;;;;22.77;17.83;;;;;;;;;;10067948;28;20432;-67
2023/10/06 10:48:13;;;;;;;29.00;18.42;;;;;;;;;;10068340;28;20092;-69
2023/10/06 10:53:05;;;;;;;24.98;18.85;;;;;;;;;;10068512;28;20065;-69
2023/10/06 10:57:57;;;;;;;21.35;17.77;;;;;;;;;;10068289;28;20038;-68
2023/10/06 11:02:52;;;;;;;20.15;18.10;;;;;;;;;;10066867;28;20099;-69
2023/10/06 11:07:58;;;;;;;23.85;17.40;;;;;;;;;;10067196;28;20079;-69
2023/10/06 11:13:24;;;;;;;23.45;20.98;;;;;;;;;;10068313;28;20046;-68
2023/10/06 11:18:18;;;;;;;25.52;20.67;;;;;;;;;;10066668;28;20041;-68
2023/10/06 11:23:10;;;;;;;25.88;20.08;;;;;;;;;;10066737;28;20482;-69
2023/10/06 11:28:04;;;;;;;29.73;21.58;;;;;;;;;;10064439;28;20037;-69
2023/10/06 11:32:57;;;;;;;21.13;18.95;;;;;;;;;;10055929;28;20041;-67
2023/10/06 11:37:49;;;;;;;26.10;19.45;;;;;;;;;;10066056;28;20044;-69
2023/10/06 11:42:41;;;;;;;20.70;18.48;;;;;;;;;;10066345;28;20046;-69
2023/10/06 11:47:33;;;;;;;22.20;19.10;;;;;;;;;;10066181;28;20049;-69
2023/10/06 11:52:26;;;;;;;26.88;20.65;;;;;;;;;;10066219;28;20460;-69
2023/10/06 11:57:19;;;;;;;29.85;21.50;;;;;;;;;;10064399;28;20091;-68
2023/10/06 12:02:12;;;;;;;23.48;19.65;;;;;;;;;;10060875;28;20426;-68
2023/10/06 12:07:04;;;;;;;24.48;19.10;;;;;;;;;;10065791;28;20057;-68
2023/10/06 12:11:59;;;;;;;24.15;20.58;;;;;;;;;;10057430;28;20472;-69
2023/10/06 12:16:51;;;;;;;22.75;20.27;;;;;;;;;;10064366;28;20037;-69
2023/10/06 12:21:43;;;;;;;24.27;19.23;;;;;;;;;;10064914;28;20049;-66
2023/10/06 12:26:35;;;;;;;19.40;16.60;;;;;;;;;;10061665;28;20038;-69
2023/10/06 12:31:27;;;;;;;20.95;18.77;;;;;;;;;;10062863;28;20051;-68
2023/10/06 12:36:19;;;;;;;21.58;18.55;;;;;;;;;;10064582;28;20128;-69
2023/10/06 12:41:12;;;;;;;19.92;17.42;;;;;;;;;;10064890;28;20454;-69
2023/10/06 12:46:04;;;;;;;24.23;18.67;;;;;;;;;;10063035;28;20459;-69
2023/10/06 12:50:58;;;;;;;22.08;17.45;;;;;;;;;;10064690;28;20119;-68
2023/10/06 12:55:56;;;;;;;20.73;18.52;;;;;;;;;;10063710;28;20124;-70
2023/10/06 13:00:49;;;;;;;21.50;16.73;;;;;;;;;;10062124;28;20045;-70
2023/10/06 13:05:47;;;;;;;20.20;16.98;;;;;;;;;;10061730;28;20471;-69
2023/10/06 13:10:39;;;;;;;22.75;18.10;;;;;;;;;;10062627;28;20042;-69
2023/10/06 13:15:31;;;;;;;27.42;19.58;;;;;;;;;;10054396;28;20034;-68
2023/10/06 13:20:23;;;;;;;27.70;19.70;;;;;;;;;;10063376;28;20081;-69
2023/10/06 13:25:17;;;;;;;23.92;17.67;;;;;;;;;;10066381;28;21221;-70
2023/10/06 13:30:13;;;;;;;27.60;19.52;;;;;;;;;;10068273;28;20049;-70
2023/10/06 13:35:11;;;;;;;20.83;17.15;;;;;;;;;;10071579;28;20370;-70
2023/10/06 13:40:08;;;;;;;22.17;19.05;;;;;;;;;;10070905;28;20052;-69
2023/10/06 13:45:00;;;;;;;19.07;17.07;;;;;;;;;;10070470;28;20471;-69
2023/10/06 13:49:54;;;;;;;19.17;15.20;;;;;;;;;;10070427;28;20095;-70
2023/10/06 13:54:46;;;;;;;22.10;18.27;;;;;;;;;;10068915;28;20034;-69
2023/10/06 13:59:42;;;;;;;24.45;17.65;;;;;;;;;;10068863;28;20426;-70
2023/10/06 14:04:34;;;;;;;24.00;18.40;;;;;;;;;;10070448;28;20057;-69
2023/10/06 14:09:26;;;;;;;21.80;17.65;;;;;;;;;;10069260;28;20041;-70
2023/10/06 14:19:43;;;;;;;23.98;17.27;;;;;;;;;;10078034;28;20134;-70
2023/10/06 14:24:39;;;;;;;21.88;16.30;;;;;;;;;;10069333;28;20034;-69
2023/10/06 14:29:31;;;;;;;26.83;18.90;;;;;;;;;;10069732;28;20046;-69
2023/10/06 14:34:46;;;;;;;19.90;17.30;;;;;;;;;;10068732;28;20128;-70
2023/10/06 14:50:03;;;;;;;19.23;15.05;;;;;;;;;;10055618;28;20049;-68
2023/10/06 14:54:54;;;;;;;21.65;17.63;;;;;;;;;;10068645;28;20048;-70
2023/10/06 14:59:46;;;;;;;22.13;16.23;;;;;;;;;;10067221;28;20060;-70
2023/10/06 15:04:39;;;;;;;21.02;16.08;;;;;;;;;;10067953;28;20423;-69
2023/10/06 15:09:31;;;;;;;19.23;16.08;;;;;;;;;;10063953;28;20389;-67
2023/10/06 15:14:28;;;;;;;20.15;14.75;;;;;;;;;;10068841;28;20380;-68
2023/10/06 15:19:24;;;;;;;19.75;16.70;;;;;;;;;;10068070;28;20056;-69
2023/10/06 15:24:17;;;;;;;17.03;15.30;;;;;;;;;;10066293;28;20049;-70
2023/10/06 15:29:10;;;;;;;18.45;15.93;;;;;;;;;;10045637;28;20061;-70
2023/10/06 15:34:04;;;;;;;18.20;15.88;;;;;;;;;;10062049;28;20376;-68
2023/10/06 15:39:00;;;;;;;15.85;14.15;;;;;;;;;;10066473;28;20399;-70
2023/10/06 15:43:53;;;;;;;16.67;14.63;;;;;;;;;;10055738;28;20050;-69
2023/10/06 15:48:44;;;;;;;18.77;14.00;;;;;;;;;;10054263;28;20042;-70
2023/10/06 15:53:41;;;;;;;19.40;14.75;;;;;;;;;;10043343;28;20050;-70
2023/10/06 15:58:34;;;;;;;20.65;15.27;;;;;;;;;;10063741;28;20117;-70
2023/10/06 16:03:26;;;;;;;20.58;15.13;;;;;;;;;;10062601;28;20095;-69
2023/10/06 16:08:19;;;;;;;20.25;14.50;;;;;;;;;;10063638;28;20049;-69
2023/10/06 16:13:11;;;;;;;16.42;14.82;;;;;;;;;;10064298;28;20390;-69
2023/10/06 16:18:04;;;;;;;18.95;15.50;;;;;;;;;;10064673;28;20041;-69
2023/10/06 16:22:58;;;;;;;16.48;13.45;;;;;;;;;;10064974;28;20051;-71
2023/10/06 16:27:51;;;;;;;18.25;12.00;;;;;;;;;;10063347;28;20038;-70
2023/10/06 16:32:42;;;;;;;13.98;11.15;;;;;;;;;;10064133;28;20065;-70
2023/10/06 16:37:37;;;;;;;17.08;13.38;;;;;;;;;;10064982;28;20072;-69
2023/10/06 16:42:29;;;;;;;15.32;13.13;;;;;;;;;;10064719;28;20483;-70
2023/10/06 16:47:21;;;;;;;18.10;12.80;;;;;;;;;;10062334;28;20068;-71
2023/10/06 16:52:13;;;;;;;19.42;14.30;;;;;;;;;;10063787;28;20099;-70
2023/10/06 16:57:05;;;;;;;18.15;12.95;;;;;;;;;;10061287;28;20041;-69
2023/10/06 17:01:57;;;;;;;14.32;12.52;;;;;;;;;;10065900;28;20064;-70
2023/10/06 17:06:49;;;;;;;17.10;13.70;;;;;;;;;;10069074;28;20060;-71
2023/10/06 17:11:42;;;;;;;17.13;14.05;;;;;;;;;;10068180;28;20045;-70
2023/10/06 17:16:37;;;;;;;16.85;13.48;;;;;;;;;;10067624;28;20464;-69
2023/10/06 17:21:30;;;;;;;18.00;14.15;;;;;;;;;;10059599;28;20053;-70
2023/10/06 17:26:22;;;;;;;16.10;13.88;;;;;;;;;;10066053;28;20133;-69
2023/10/06 17:31:14;;;;;;;17.05;14.07;;;;;;;;;;10068512;28;20034;-69
2023/10/06 17:36:08;;;;;;;21.33;14.88;;;;;;;;;;10060554;28;20042;-70
2023/10/06 17:41:00;;;;;;;19.45;15.63;;;;;;;;;;10067104;28;20107;-69
2023/10/06 17:45:52;;;;;;;18.40;13.77;;;;;;;;;;10067187;28;20124;-70
2023/10/06 17:50:47;;;;;;;14.68;13.18;;;;;;;;;;10063944;28;20041;-70
2023/10/06 17:55:39;;;;;;;18.67;15.23;;;;;;;;;;10067590;28;20076;-70
2023/10/06 18:00:31;;;;;;;19.65;14.05;;;;;;;;;;10064859;28;20041;-69
2023/10/06 18:05:23;;;;;;;16.33;12.52;;;;;;;;;;10066082;28;20058;-69
2023/10/06 18:10:16;;;;;;;18.70;14.80;;;;;;;;;;10066510;28;20049;-69
2023/10/06 18:15:08;;;;;;;17.27;14.38;;;;;;;;;;10066739;28;20117;-70
2023/10/06 18:20:00;;;;;;;17.30;13.55;;;;;;;;;;10066550;28;20051;-67
2023/10/06 18:24:52;;;;;;;20.95;13.07;;;;;;;;;;10065202;28;20041;-69
2023/10/06 18:29:44;;;;;;;16.48;14.13;;;;;;;;;;10065890;28;20053;-70
2023/10/06 18:34:36;;;;;;;21.52;16.20;;;;;;;;;;10064753;28;20044;-71
2023/10/06 18:39:29;;;;;;;18.60;13.90;;;;;;;;;;10068571;28;20465;-70
2023/10/06 18:44:22;;;;;;;16.85;14.82;;;;;;;;;;10050185;28;20167;-70
2023/10/06 18:49:14;;;;;;;20.98;15.40;;;;;;;;;;10053188;28;20108;-70
2023/10/06 18:54:08;;;;;;;17.15;15.30;;;;;;;;;;10057848;28;20041;-70
2023/10/06 18:59:01;;;;;;;17.98;14.65;;;;;;;;;;10051887;28;20042;-70
2023/10/06 19:03:53;;;;;;;22.20;15.13;;;;;;;;;;10050457;28;20056;-69
2023/10/06 19:08:53;;;;;;;21.48;16.95;;;;;;;;;;10053159;28;20041;-70
2023/10/06 19:13:48;;;;;;;18.65;16.20;;;;;;;;;;10051245;28;20072;-69
2023/10/06 19:18:43;;;;;;;19.73;16.83;;;;;;;;;;10057905;28;20061;-70
2023/10/06 19:23:35;;;;;;;20.05;15.20;;;;;;;;;;10039683;28;20452;-70
2023/10/06 19:28:28;;;;;;;18.58;15.30;;;;;;;;;;10063307;28;20045;-70
2023/10/06 19:33:20;;;;;;;18.52;14.70;;;;;;;;;;10053246;28;20103;-69
2023/10/06 19:38:12;;;;;;;27.70;18.02;;;;;;;;;;10054399;28;20076;-67
2023/10/06 19:43:04;;;;;;;20.30;15.82;;;;;;;;;;10062630;28;20053;-69
2023/10/06 19:47:56;;;;;;;19.48;16.00;;;;;;;;;;10064998;28;20450;-67
2023/10/06 19:52:49;;;;;;;22.38;15.85;;;;;;;;;;10065393;28;20065;-66
2023/10/06 19:57:41;;;;;;;18.02;16.15;;;;;;;;;;10064742;28;20139;-68
2023/10/06 20:02:33;;;;;;;23.77;17.83;;;;;;;;;;10061760;28;20144;-68
2023/10/06 20:07:25;;;;;;;23.70;18.60;;;;;;;;;;10063670;28;20495;-68
2023/10/06 20:12:17;;;;;;;23.92;19.02;;;;;;;;;;10053813;28;20574;-69
2023/10/06 20:17:12;;;;;;;25.83;18.95;;;;;;;;;;10049235;28;20148;-67
2023/10/06 20:22:04;;;;;;;25.00;19.38;;;;;;;;;;10065221;28;20045;-67
2023/10/06 20:26:56;;;;;;;20.52;18.30;;;;;;;;;;10063952;28;20136;-69
2023/10/06 20:31:49;;;;;;;24.85;19.60;;;;;;;;;;10063527;28;20427;-67
2023/10/06 20:36:43;;;;;;;24.60;18.30;;;;;;;;;;10040235;28;20443;-68
2023/10/06 20:41:36;;;;;;;25.80;19.50;;;;;;;;;;10063488;28;20494;-67
2023/10/06 20:46:29;;;;;;;29.35;19.13;;;;;;;;;;10063403;28;20128;-67
2023/10/06 20:51:24;;;;;;;26.17;19.40;;;;;;;;;;10064373;28;20045;-68
2023/10/06 20:56:18;;;;;;;25.50;20.65;;;;;;;;;;10070908;28;20045;-69
2023/10/06 21:01:10;;;;;;;26.65;18.95;;;;;;;;;;10061959;28;20072;-67
2023/10/06 21:06:02;;;;;;;28.65;21.05;;;;;;;;;;10059807;28;20058;-68
2023/10/06 21:10:54;;;;;;;31.95;21.60;;;;;;;;;;10062566;28;20045;-68
2023/10/06 21:15:46;;;;;;;27.33;20.45;;;;;;;;;;10062505;28;20488;-68
2023/10/06 21:20:38;;;;;;;24.73;20.17;;;;;;;;;;10063819;28;20052;-68
2023/10/06 21:25:30;;;;;;;25.05;22.38;;;;;;;;;;10062798;28;20065;-67
2023/10/06 21:30:22;;;;;;;26.90;21.27;;;;;;;;;;10062930;28;20137;-69
2023/10/06 21:35:14;;;;;;;23.13;20.38;;;;;;;;;;10059696;28;20435;-68
2023/10/06 21:40:08;;;;;;;26.10;22.25;;;;;;;;;;10058569;28;20391;-69
2023/10/06 21:45:00;;;;;;;24.55;19.35;;;;;;;;;;10064453;28;20087;-68
2023/10/06 21:49:52;;;;;;;23.27;20.35;;;;;;;;;;10067266;28;20080;-68
2023/10/06 21:54:44;;;;;;;24.08;20.92;;;;;;;;;;10067194;28;20033;-69
2023/10/06 21:59:36;;;;;;;26.13;20.55;;;;;;;;;;10067661;28;20046;-69
2023/10/06 22:04:28;;;;;;;27.33;22.17;;;;;;;;;;10055191;28;20057;-69
2023/10/06 22:09:21;;;;;;;26.17;21.63;;;;;;;;;;10052906;28;20037;-70
2023/10/06 22:14:13;;;;;;;29.08;21.33;;;;;;;;;;10066735;28;20057;-69
2023/10/06 22:19:08;;;;;;;22.80;20.08;;;;;;;;;;10067001;28;20072;-69
2023/10/06 22:24:01;;;;;;;25.33;20.33;;;;;;;;;;10069276;28;20155;-70
2023/10/06 22:28:54;;;;;;;25.33;21.77;;;;;;;;;;10069681;28;20216;-70
2023/10/06 22:33:46;;;;;;;27.92;20.83;;;;;;;;;;10069093;28;20045;-68
2023/10/06 22:38:38;;;;;;;32.13;22.73;;;;;;;;;;10069691;28;20407;-69
2023/10/06 22:43:30;;;;;;;30.58;24.35;;;;;;;;;;10069397;28;20046;-70
2023/10/06 22:48:22;;;;;;;31.30;23.63;;;;;;;;;;10068643;28;20067;-70
2023/10/06 22:53:14;;;;;;;27.58;23.83;;;;;;;;;;10068606;28;20096;-69
2023/10/06 22:58:06;;;;;;;29.85;23.17;;;;;;;;;;10067648;28;20069;-69
2023/10/06 23:02:58;;;;;;;33.95;22.63;;;;;;;;;;10067224;28;20215;-69
2023/10/06 23:07:51;;;;;;;27.10;23.45;;;;;;;;;;10068658;28;20045;-69
2023/10/06 23:12:44;;;;;;;29.45;24.00;;;;;;;;;;10068072;28;20421;-70
2023/10/06 23:17:40;;;;;;;26.80;22.45;;;;;;;;;;10067883;28;20136;-69
2023/10/06 23:22:33;;;;;;;29.38;23.10;;;;;;;;;;10068148;28;20144;-69
2023/10/06 23:27:24;;;;;;;25.63;22.20;;;;;;;;;;10067370;28;20125;-70
2023/10/06 23:32:17;;;;;;;24.80;21.17;;;;;;;;;;10067473;28;20361;-70
2023/10/06 23:37:12;;;;;;;25.83;20.45;;;;;;;;;;10067369;28;20353;-69
2023/10/06 23:42:09;;;;;;;24.70;21.52;;;;;;;;;;10066887;28;20057;-68
2023/10/06 23:47:01;;;;;;;24.92;20.42;;;;;;;;;;10066806;28;20095;-69
2023/10/06 23:51:55;;;;;;;27.42;20.83;;;;;;;;;;10066961;28;20037;-68
2023/10/06 23:56:47;;;;;;;27.98;24.58;;;;;;;;;;10066593;28;20340;-69
